Thursday, July 31, 2014
21:46 UTC
  |  Log In   |  Register Free
Airport Search:

Meyers-Diver'S Airport
(3TE)

Meyers-Diver'S Airport Diagram
No Airport Diagram Available

FAA data valid effective July 24, 2014 until September 18, 2014 (unless otherwise noted).

 
 
 
 
 
 
 
 
 
 
 
 
 
 

Current Aviation Weather for Meyers-Diver'S Airport (3TE)

The most recent METAR observation for KADG was updated at: 1753 UTC
METAR Summary (Translated METAR)
KADG
281753Z AUTO 36010KT 310V020 10SM FEW044 SCT050 OVC070 21/12 A2994 RMK AO2 SLP139 T02060122 10217 20172 51005 TSNO
KDUH
(20.4 nm SE from KADG)
281835Z AUTO 33009G15KT 10SM SCT042 SCT060 BKN070 22/11 A2992 RMK AO2
TAF Summary (Translated TAF)
KTOL
(20.7 nm SE from KADG)
311734Z 3118/0118 25008KT P6SM SCT040 FM312000 25008KT P6SM BKN050 FM010100 23003KT P6SM SKC FM011000 00000KT 5SM BR SKC FM011300 22005KT P6SM SKC
  Airport Weather Conditions for 3TE

Current weather conditions are
not available for 3TE


The nearest NOAA weather station
is at ADG, (11.3 nm SW from 3TE)
  
 Current Weather at ADG
80° F
Partly Cloudy
Northwest winds at 15.0 mph
ADG NOAA Radar

Pressure: 30.03 in
Humidity: 44%
Wind: from the Northwest at 15.0 gusting to 20.7 MPH (13 gusting to 18 KT)
Dew Point: 55.9°F
Visibility: 10.00 mi


Airport Weather Forecast for 3TE

Translated METAR and TAF for KADG
Translated METAR for KADG (2139 UTC 31 July 2014)
found at http://aviationweather.gov/adds/metars/
 
METAR text: KADG 312053Z AUTO 30013G18KT 10SM SCT055 SCT100 27/13 A3003 RMK AO2 SLPNO 6//// T02670133
Conditions at: KADG (ADRIAN , MI, US) observed 2053 UTC 31 July 2014
Temperature: 26.7°C (80°F)
Dewpoint: 13.3°C (56°F) [RH = 44%]
Pressure (altimeter): 30.03 inches Hg (1017.0 mb)
Winds: from the WNW (300 degrees) at 15 MPH (13 knots; 6.8 m/s)
gusting to 21 MPH (18 knots; 9.4 m/s)
Visibility: 10 or more miles (16+ km)
Ceiling: at least 12,000 feet AGL
Clouds: scattered clouds at 5500 feet AGL
scattered clouds at 10000 feet AGL
Weather: automated observation with no human augmentation;
there may or may not be significant weather present at this time
Translated TAF for KADG

There is no translated TAF available for this airport

Find All Airport Services Find A Hotel Find A Rental Car Find A Golf Course Find A Restaurant $100 Hamburger



FBO's on the Field
FBO Company Facility Photos Services Transportation Aviation Fuel Prices: Prices include tax
Catering Weather Repair Courtesy Rental Type 100LL JetA JetA+ MOGAS 8087
 
Add another FBO Facility Photos Catering Weather Repair Courtesy Rental Type 100LL JetA JetA+ MOGAS 8087
Services Transportation Aviation Fuel Prices: Prices include tax
There are no FBO's currently reporting fuel at 3TE. List your FBO now


GlobalAir.com Airport Resource Center model-print
model-print
model-print
model-print